KCUB

Jim Hamilton L B Owens Airport

Columbia, South Carolina, USA
METAR KCUB 170953Z AUTO 00000KT 10SM OVC060 06/01 A3025 RMK AO2 SLP242 T00610006
Observed Flight Rules
Jan-17 @ 09:53 UTC (38 minutes ago) Visual Flight Rules
Wind Visibility Clouds
Calm 10 miles
  • Overcast at 6,000' AGL
Temperatures Readings
Current 6°C / 43°F
Dewpoint 1°C / 34°F
Humidity 71%
Altimeter 30.25" Hg
Pressure 1024.2 hPa
Elevation 56
METAR KCUB 170953Z AUTO 00000KT 10SM OVC060 06/01 A3025 RMK AO2 SLP242 T00610006
Observed Flight Rules
Jan-17 @ 09:53 UTC
(38 minutes ago)
VFR
Wind Visibility
Calm 10 miles
Clouds
  • Overcast at 6,000' AGL
Temperature Dewpoint
6°C / 43°F 1°C / 34°F
Humidity Altimeter Pressure
71% 30.25" Hg 1024.2 hPa